Time;durP1;ratioP1;P1;durP2;ratioP2;P2;SDS_P1;SDS_P2;PMS_P1;PMS_P2;Temp;Humidity;BMP_temperature;BMP_pressure;BME280_temperature;BME280_humidity;BME280_pressure;Samples;Min_cycle;Max_cycle;Signal;HPM_P1;HPM_P2
2022/02/09 00:04:37;;;;;;;4.18;1.42;;;;;;;-1.88;100.00;96234.63;5051253;28;20514;-68
2022/02/09 00:07:01;;;;;;;2.70;1.10;;;;;;;-1.93;100.00;96218.53;5042908;28;20055;-67
2022/02/09 00:09:34;;;;;;;1.35;1.02;;;;;;;-1.92;100.00;96216.72;5045528;28;20025;-67
2022/02/09 00:12:11;;;;;;;;;;;;;;;-1.93;100.00;96215.09;5033888;28;20454;-67
2022/02/09 00:14:49;;;;;;;1.83;1.13;;;;;;;-1.91;100.00;96216.56;5051519;28;20336;-67
2022/02/09 00:21:31;;;;;;;2.42;1.08;;;;;;;-1.84;100.00;96222.03;5009348;28;20033;-67
2022/02/09 00:23:43;;;;;;;2.15;0.98;;;;;;;-1.83;100.00;96224.47;5000514;28;20033;-67
2022/02/09 01:57:18;;;;;;;1.50;0.75;;;;;;;-2.38;100.00;96266.09;5054624;28;20031;-65
2022/02/09 01:59:47;;;;;;;2.78;1.00;;;;;;;-2.42;100.00;96269.97;5054344;28;20052;-66
2022/02/09 02:02:13;;;;;;;1.23;0.73;;;;;;;-2.44;100.00;96271.94;5054167;28;20023;-65
2022/02/09 02:04:47;;;;;;;1.23;0.73;;;;;;;-2.48;100.00;96260.94;5054139;28;20029;-64
2022/02/09 02:07:58;;;;;;;1.45;0.80;;;;;;;-2.50;100.00;96260.25;5052827;28;20071;-65
2022/02/09 02:10:15;;;;;;;1.02;0.70;;;;;;;-2.56;100.00;96258.28;5064839;28;20108;-66
2022/02/09 02:13:33;;;;;;;1.13;0.82;;;;;;;-2.57;100.00;96255.81;5072984;28;20070;-66
2022/02/09 02:18:34;;;;;;;1.60;0.93;;;;;;;-2.58;100.00;96262.03;5073954;28;20074;-66
2022/02/09 02:21:39;;;;;;;2.50;0.88;;;;;;;-2.58;100.00;96262.84;5072573;28;20032;-66
2022/02/09 02:32:16;;;;;;;2.33;0.85;;;;;;;-2.59;100.00;96278.75;5073935;28;20017;-66
2022/02/09 02:59:34;;;;;;;1.63;0.77;;;;;;;-2.67;100.00;96284.75;5073401;28;20085;-65
2022/02/09 03:13:15;;;;;;;1.35;0.75;;;;;;;-2.76;100.00;96285.66;5053109;28;20074;-65
2022/02/09 03:45:07;;;;;;;1.30;0.90;;;;;;;-3.35;100.00;96295.00;5054977;28;20505;-65
2022/02/09 03:57:47;;;;;;;1.50;0.98;;;;;;;-3.37;100.00;96304.78;5052597;28;20039;-64
2022/02/09 04:00:35;;;;;;;3.95;0.90;;;;;;;-3.40;100.00;96310.31;5050778;28;20024;-64
2022/02/09 04:03:06;;;;;;;1.73;0.90;;;;;;;-3.46;100.00;96308.31;5052398;28;20024;-64
2022/02/09 04:05:40;;;;;;;2.45;0.98;;;;;;;-3.49;100.00;96301.56;5052208;28;20043;-64
2022/02/09 04:08:10;;;;;;;1.38;0.93;;;;;;;-3.47;100.00;96306.66;5052012;28;20044;-64
2022/02/09 04:16:09;;;;;;;3.35;1.05;;;;;;;-3.51;100.00;96314.81;5075022;28;20031;-64
2022/02/09 04:19:42;;;;;;;1.88;1.00;;;;;;;-3.49;100.00;96322.50;5076171;28;20471;-64
2022/02/09 04:38:08;;;;;;;0.85;0.70;;;;;;;-3.55;100.00;96333.59;5066395;28;20069;-64
2022/02/09 04:48:34;;;;;;;1.92;0.80;;;;;;;-3.65;100.00;96331.03;5055794;28;20071;-64
2022/02/09 04:54:24;;;;;;;1.98;1.10;;;;;;;-3.65;100.00;96331.03;5053328;28;20079;-63
2022/02/09 04:56:57;;;;;;;1.17;0.90;;;;;;;-3.64;100.00;96334.47;5053142;28;20029;-63
2022/02/09 05:21:37;;;;;;;1.83;1.00;;;;;;;-3.89;100.00;96336.81;5074738;28;20029;-62
2022/02/09 05:26:41;;;;;;;2.85;1.40;;;;;;;-3.84;100.00;96344.22;5075010;28;20024;-61
2022/02/09 05:29:12;;;;;;;2.75;1.13;;;;;;;-3.86;100.00;96348.78;5075085;28;20052;-63
2022/02/09 05:31:37;;;;;;;2.92;1.33;;;;;;;-3.87;100.00;96352.34;5074945;28;20363;-63
2022/02/09 05:34:02;;;;;;;2.17;1.20;;;;;;;-3.91;100.00;96356.22;5074898;28;20039;-63
2022/02/09 05:36:28;;;;;;;3.67;1.20;;;;;;;-3.94;100.00;96354.72;5073666;28;20111;-61
2022/02/09 05:38:54;;;;;;;3.33;1.17;;;;;;;-3.94;100.00;96353.91;5057869;28;20078;-63
2022/02/09 05:41:23;;;;;;;2.10;1.15;;;;;;;-3.95;100.00;96357.47;5053599;28;20163;-63
2022/02/09 05:43:49;;;;;;;1.42;1.02;;;;;;;-3.93;100.00;96355.53;5057072;28;20029;-62
2022/02/09 05:49:29;;;;;;;5.50;1.38;;;;;;;-3.96;100.00;96363.69;5054971;28;20032;-63
2022/02/09 05:52:01;;;;;;;1.85;1.30;;;;;;;-4.04;100.00;96359.16;5053683;28;20028;-62
2022/02/09 05:59:58;;;;;;;2.72;1.30;;;;;;;-4.11;100.00;96377.25;5068902;28;20438;-62
2022/02/09 06:02:24;;;;;;;2.55;1.15;;;;;;;-4.06;100.00;96373.38;5054699;28;20070;-63
2022/02/09 06:04:52;;;;;;;2.75;1.40;;;;;;;-4.05;100.00;96377.63;5054587;28;20111;-62
2022/02/09 06:07:21;;;;;;;3.30;1.40;;;;;;;-4.06;100.00;96376.81;5053345;28;20023;-61
2022/02/09 06:09:47;;;;;;;2.05;1.00;;;;;;;-4.04;100.00;96367.00;5054667;28;20033;-63
2022/02/09 06:12:25;;;;;;;1.92;1.10;;;;;;;-4.01;100.00;96368.53;5054851;28;20483;-63
2022/02/09 06:20:23;;;;;;;2.50;1.20;;;;;;;-4.02;100.00;96369.47;5063919;28;20064;-64
2022/02/09 06:22:48;;;;;;;3.88;1.40;;;;;;;-4.03;100.00;96378.31;5060005;28;20059;-64
2022/02/09 06:25:13;;;;;;;2.72;1.65;;;;;;;-4.07;100.00;96374.34;5055378;28;20476;-63
2022/02/09 06:27:45;;;;;;;2.05;1.27;;;;;;;-4.13;100.00;96379.16;5073053;28;20114;-64
2022/02/09 06:30:16;;;;;;;2.42;1.30;;;;;;;-4.14;100.00;96381.91;5069867;28;20092;-63
2022/02/09 06:32:41;;;;;;;2.25;1.10;;;;;;;-4.16;100.00;96384.69;5071939;28;20027;-64
2022/02/09 06:35:09;;;;;;;2.60;1.10;;;;;;;-4.17;100.00;96385.66;5073918;28;20119;-63
2022/02/09 06:37:46;;;;;;;4.28;1.70;;;;;;;-4.20;100.00;96388.56;5059139;28;20426;-64
2022/02/09 06:40:16;;;;;;;3.47;1.20;;;;;;;-4.21;100.00;96386.91;5070998;28;20052;-63
2022/02/09 06:42:47;;;;;;;1.60;1.20;;;;;;;-4.19;100.00;96382.34;5073225;28;20020;-63
2022/02/09 06:45:22;;;;;;;2.63;1.08;;;;;;;-4.20;100.00;96372.03;5057244;28;20029;-63
2022/02/09 06:47:49;;;;;;;3.83;1.42;;;;;;;-4.23;100.00;96386.22;5052114;28;20083;-63
2022/02/09 06:52:47;;;;;;;2.63;1.08;;;;;;;-4.27;100.00;96377.00;5062170;28;20114;-64
2022/02/09 06:55:17;;;;;;;1.38;1.00;;;;;;;-4.29;100.00;96378.94;5053125;28;20057;-63
2022/02/09 06:58:15;;;;;;;2.13;0.90;;;;;;;-4.28;100.00;96377.97;5053032;28;20641;-62
2022/02/09 07:00:33;;;;;;;1.90;1.10;;;;;;;-4.27;100.00;96374.38;5055372;28;20518;-63
2022/02/09 07:02:59;;;;;;;3.92;1.48;;;;;;;-4.27;100.00;96374.38;5068626;28;20099;-64
2022/02/09 07:05:24;;;;;;;4.15;1.23;;;;;;;-4.22;100.00;96374.81;5072888;28;20060;-62
2022/02/09 07:07:50;;;;;;;1.40;0.98;;;;;;;-4.17;100.00;96379.59;5072823;28;20028;-63
2022/02/09 07:10:15;;;;;;;2.25;1.30;;;;;;;-4.17;100.00;96385.66;5068861;28;20450;-63
2022/02/09 07:12:41;;;;;;;2.28;1.10;;;;;;;-4.11;100.00;96382.47;5066913;28;20024;-63
2022/02/09 07:15:11;;;;;;;2.53;1.02;;;;;;;-4.04;100.00;96385.31;5071606;28;20025;-63
2022/02/09 07:17:36;;;;;;;2.42;1.13;;;;;;;-3.96;100.00;96374.97;5072358;28;20047;-63
2022/02/09 07:20:13;;;;;;;2.08;1.00;;;;;;;-3.88;100.00;96382.94;5064561;28;20033;-63
2022/02/09 07:22:39;;;;;;;2.40;1.40;;;;;;;-3.81;100.00;96376.16;5072616;28;20024;-63
2022/02/09 07:25:10;;;;;;;2.60;1.13;;;;;;;-3.74;100.00;96379.03;5036077;28;20481;-63
2022/02/09 07:27:50;;;;;;;2.70;1.05;;;;;;;-3.70;100.00;96377.75;5052141;28;20029;-63
2022/02/09 07:30:22;;;;;;;1.65;1.08;;;;;;;-3.69;100.00;96376.81;5032754;28;20032;-63
2022/02/09 07:32:55;;;;;;;1.70;1.00;;;;;;;-3.63;100.00;96378.84;5039575;28;20391;-63
2022/02/09 07:35:21;;;;;;;2.13;1.00;;;;;;;-3.55;100.00;96378.94;5074759;22;20059;-60
2022/02/09 07:37:47;;;;;;;3.28;1.00;;;;;;;-3.46;100.00;96371.19;5059439;28;20089;-59
2022/02/09 07:40:13;;;;;;;2.13;1.30;;;;;;;-3.34;100.00;96378.69;5070493;28;20487;-62
2022/02/09 07:42:47;;;;;;;1.08;0.98;;;;;;;-3.19;100.00;96373.75;5072704;28;20055;-57
2022/02/09 07:48:27;;;;;;;4.75;1.10;;;;;;;-2.69;100.00;96368.81;5090726;28;20482;-56
2022/02/09 07:51:16;;;;;;;3.63;1.30;;;;;;;-2.40;100.00;96370.34;5092998;28;20093;-59
2022/02/09 07:53:57;;;;;;;3.25;1.80;;;;;;;-2.10;100.00;96364.66;5093055;28;20071;-61
2022/02/09 07:56:23;;;;;;;3.80;1.90;;;;;;;-1.77;100.00;96363.03;5091401;28;20024;-61
2022/02/09 07:58:48;;;;;;;8.75;1.90;;;;;;;-1.63;100.00;96355.53;5091378;28;20020;-61
2022/02/09 08:01:13;;;;;;;4.35;1.70;;;;;;;-1.43;100.00;96351.66;5091159;28;20103;-60
2022/02/09 08:03:41;;;;;;;6.25;2.55;;;;;;;-1.20;100.00;96357.16;5074368;28;20059;-61
2022/02/09 08:06:07;;;;;;;7.68;2.75;;;;;;;-1.06;100.00;96353.91;5091132;28;20039;-59
2022/02/09 08:08:34;;;;;;;7.07;3.67;;;;;;;-0.97;100.00;96352.13;5091337;28;20408;-60
2022/02/09 08:11:13;;;;;;;7.65;3.17;;;;;;;-0.83;100.00;96358.53;5091010;28;20024;-61
2022/02/09 08:30:21;;;;;;;3.88;1.77;;;;;;;1.03;100.00;96301.03;5058083;28;20478;-63
2022/02/09 08:35:16;;;;;;;4.55;1.65;;;;;;;1.74;100.00;96299.81;5090678;28;20107;-64
2022/02/09 08:37:42;;;;;;;3.33;1.77;;;;;;;2.11;100.00;96283.06;5071874;28;20185;-62
2022/02/09 08:40:10;;;;;;;3.22;1.52;;;;;;;2.52;100.00;96269.34;5071770;28;20041;-62
2022/02/09 08:42:38;;;;;;;2.33;1.40;;;;;;;2.94;100.00;96251.91;5071749;28;20028;-62
2022/02/09 08:45:07;;;;;;;2.55;1.60;;;;;;;3.33;100.00;96241.66;5071645;28;20025;-61
2022/02/09 08:47:33;;;;;;;2.92;1.60;;;;;;;3.71;100.00;96217.50;5054251;28;20102;-62
2022/02/09 08:49:58;;;;;;;2.92;1.35;;;;;;;4.05;100.00;96180.38;5071691;28;20078;-62
2022/02/09 08:52:24;;;;;;;4.47;1.30;;;;;;;4.33;100.00;96153.72;5071632;28;20491;-60
2022/02/09 08:54:52;;;;;;;2.40;1.30;;;;;;;4.64;100.00;96121.34;5068117;28;20115;-62
2022/02/09 08:57:20;;;;;;;2.00;1.00;;;;;;;4.92;100.00;96096.47;5071717;28;20032;-61
2022/02/09 08:59:45;;;;;;;3.38;0.90;;;;;;;5.21;100.00;96050.91;5075964;28;20028;-60
2022/02/09 09:02:13;;;;;;;1.55;1.10;;;;;;;5.42;100.00;96011.81;5073950;28;20043;-60
2022/02/09 09:04:47;;;;;;;1.27;0.90;;;;;;;5.67;100.00;95980.84;5075545;28;20115;-58
2022/02/09 09:07:19;;;;;;;1.52;1.08;;;;;;;5.79;100.00;95960.53;5073114;28;20024;-58
2022/02/09 09:31:26;;;;;;;2.88;1.60;;;;;;;6.18;100.00;96165.34;5074889;28;20047;-62
2022/02/09 10:34:19;;;;;;;2.97;1.83;;;;;;;9.77;100.00;96590.25;5031580;28;20025;-65
2022/02/09 10:36:50;;;;;;;12.82;4.90;;;;;;;9.48;100.00;96597.13;5069261;28;20109;-65
2022/02/09 10:39:31;;;;;;;7.65;3.60;;;;;;;9.47;100.00;96603.53;5070389;28;20387;-65
2022/02/09 10:42:14;;;;;;;3.83;2.35;;;;;;;9.65;100.00;96602.72;5070338;28;20031;-65
2022/02/09 10:44:48;;;;;;;6.30;1.63;;;;;;;9.74;100.00;96591.50;5069518;28;20480;-65
2022/02/09 10:47:26;;;;;;;2.53;1.58;;;;;;;9.98;100.00;96594.31;5073263;28;20111;-65
2022/02/09 10:50:12;;;;;;;3.30;1.75;;;;;;;10.07;100.00;96604.50;5070589;28;20024;-66
2022/02/09 10:52:47;;;;;;;2.72;1.63;;;;;;;10.25;100.00;96593.00;5069313;28;20066;-65
2022/02/09 10:55:28;;;;;;;3.85;1.75;;;;;;;10.48;100.00;96608.34;5066981;28;20092;-65
2022/02/09 10:57:55;;;;;;;4.70;1.88;;;;;;;10.69;99.37;96628.47;5067930;28;20017;-65
2022/02/09 11:00:23;;;;;;;2.13;1.60;;;;;;;10.67;94.52;96649.31;5070470;28;20023;-65
2022/02/09 11:02:51;;;;;;;5.03;1.83;;;;;;;10.93;92.12;96643.56;5072306;28;20024;-65
2022/02/09 11:05:19;;;;;;;4.18;1.88;;;;;;;11.15;92.34;96651.09;5066101;28;20454;-66
2022/02/09 11:07:47;;;;;;;3.08;1.80;;;;;;;11.19;90.01;96652.28;5071322;28;20055;-66
2022/02/09 11:10:13;;;;;;;2.33;1.90;;;;;;;10.95;89.53;96665.59;5071735;28;20523;-66
2022/02/09 11:12:41;;;;;;;3.42;2.10;;;;;;;10.89;90.75;96660.34;5070798;28;20024;-66
2022/02/09 11:15:09;;;;;;;3.50;1.88;;;;;;;11.02;90.13;96649.44;5070543;28;20074;-66
2022/02/09 11:17:36;;;;;;;3.22;1.77;;;;;;;11.28;91.48;96643.66;5070706;28;20570;-66
2022/02/09 11:20:09;;;;;;;2.80;1.88;;;;;;;11.38;92.69;96637.72;5075274;28;20478;-66
2022/02/09 11:22:46;;;;;;;3.45;2.10;;;;;;;11.63;93.47;96632.16;5086220;28;20024;-66
2022/02/09 11:25:27;;;;;;;3.22;1.85;;;;;;;11.72;91.20;96638.81;4973251;28;20132;-66
2022/02/09 11:28:22;;;;;;;3.50;2.00;;;;;;;11.89;90.42;96637.06;5064367;28;20036;-66
2022/02/09 11:31:06;;;;;;;2.40;2.00;;;;;;;11.88;89.40;96640.00;5071598;28;20306;-66
2022/02/09 11:34:05;;;;;;;5.82;2.05;;;;;;;11.96;87.31;96655.75;5070687;28;20020;-66
2022/02/09 11:36:52;;;;;;;4.28;1.92;;;;;;;12.08;86.31;96653.88;5071263;28;20612;-66
2022/02/09 11:39:43;;;;;;;2.55;1.90;;;;;;;11.90;87.21;96643.25;5063317;28;20443;-66
2022/02/09 11:42:48;;;;;;;4.82;1.85;;;;;;;11.82;89.20;96636.34;5071688;28;20025;-66
2022/02/09 11:51:26;;;;;;;4.30;1.90;;;;;;;12.47;87.83;96611.13;5086986;28;20036;-66
2022/02/09 12:11:28;;;;;;;3.13;2.22;;;;;;;12.76;77.39;96625.38;5066156;28;20125;-66
2022/02/09 12:13:59;;;;;;;3.75;2.30;;;;;;;13.03;76.66;96625.63;5080442;28;20050;-67
2022/02/09 12:19:24;;;;;;;2.75;2.40;;;;;;;13.60;74.43;96638.97;5069621;28;20028;-67
2022/02/09 12:24:22;;;;;;;5.60;2.03;;;;;;;13.66;74.37;96640.66;5071425;28;20111;-67
2022/02/09 12:27:21;;;;;;;2.60;2.00;;;;;;;13.73;76.31;96613.56;5063058;28;20028;-67
2022/02/09 12:29:48;;;;;;;4.18;2.10;;;;;;;14.04;76.57;96617.50;5062024;28;20827;-67
2022/02/09 12:32:17;;;;;;;3.50;1.90;;;;;;;14.39;77.16;96599.09;5087270;28;20393;-67
2022/02/09 12:34:56;;;;;;;3.80;1.88;;;;;;;14.39;74.02;96604.47;5072637;28;20032;-67
2022/02/09 12:37:22;;;;;;;4.13;2.03;;;;;;;14.53;75.99;96598.72;5073097;28;20109;-67
2022/02/09 12:39:52;;;;;;;3.40;1.90;;;;;;;14.57;72.65;96599.88;5073406;28;20024;-67
2022/02/09 12:42:27;;;;;;;2.40;1.77;;;;;;;14.61;74.15;96587.50;5069522;28;20033;-67
2022/02/09 12:45:05;;;;;;;2.88;1.73;;;;;;;14.43;73.28;96594.00;5068970;28;20035;-67
2022/02/09 12:47:37;;;;;;;2.15;1.70;;;;;;;14.13;73.27;96591.78;5073586;28;20020;-68
2022/02/09 12:50:07;;;;;;;2.25;1.80;;;;;;;14.19;73.44;96588.88;5072986;28;20475;-68
2022/02/09 12:52:35;;;;;;;2.72;1.77;;;;;;;14.05;76.06;96592.19;5074832;28;20059;-67
2022/02/09 12:55:15;;;;;;;3.13;1.80;;;;;;;13.93;73.37;96592.31;5074693;28;20021;-68
2022/02/09 12:57:57;;;;;;;2.97;2.00;;;;;;;14.08;71.48;96603.28;5070401;28;20017;-67
2022/02/09 13:00:29;;;;;;;3.83;1.80;;;;;;;14.38;72.11;96599.34;5061550;28;20109;-68
2022/02/09 13:02:58;;;;;;;4.47;1.83;;;;;;;14.43;70.19;96596.69;5073204;28;20029;-67
2022/02/09 13:05:27;;;;;;;2.05;1.60;;;;;;;14.53;70.71;96590.63;5073240;28;20042;-67
2022/02/09 13:07:59;;;;;;;2.17;1.80;;;;;;;14.60;71.20;96583.19;5072854;28;20071;-68
2022/02/09 13:10:33;;;;;;;2.55;2.00;;;;;;;14.58;67.66;96591.53;5072815;28;20024;-67
2022/02/09 13:13:08;;;;;;;2.72;1.83;;;;;;;14.61;68.46;96588.31;5074575;28;20021;-68
2022/02/09 13:15:44;;;;;;;2.63;1.70;;;;;;;14.55;67.44;96578.56;5075005;28;20025;-67
2022/02/09 13:18:33;;;;;;;2.75;1.83;;;;;;;14.58;65.97;96588.81;5074551;28;20082;-67
2022/02/09 13:23:55;;;;;;;2.40;2.00;;;;;;;14.41;69.79;96582.66;5073447;28;20021;-66
2022/02/09 14:47:17;;;;;;;5.10;1.73;;;;;;;13.82;66.67;96515.94;5053396;28;20041;-66
2022/02/09 14:54:47;;;;;;;3.55;1.80;;;;;;;13.68;71.35;96493.16;5053170;28;20041;-66
2022/02/09 14:57:26;;;;;;;4.32;2.20;;;;;;;13.75;69.75;96498.34;5053087;28;20020;-66
2022/02/09 15:07:54;;;;;;;2.95;1.80;;;;;;;13.66;69.48;96494.44;5051889;28;20025;-66
2022/02/09 15:10:47;;;;;;;3.13;2.03;;;;;;;13.42;68.39;96501.94;5051937;28;20056;-65
2022/02/09 15:13:34;;;;;;;2.08;1.48;;;;;;;13.27;69.19;96495.28;5036789;28;20116;-65
2022/02/09 15:16:14;;;;;;;2.83;2.10;;;;;;;13.19;71.18;96484.94;5032970;28;20507;-66
2022/02/09 15:24:19;;;;;;;3.30;2.00;;;;;;;12.94;72.32;96487.22;5033039;28;20476;-65
2022/02/09 15:26:50;;;;;;;3.72;1.88;;;;;;;12.86;72.09;96485.75;5031423;28;20025;-66
2022/02/09 15:29:19;;;;;;;4.72;2.35;;;;;;;12.75;74.44;96476.69;5031664;28;20029;-66
2022/02/09 15:31:58;;;;;;;4.32;2.30;;;;;;;12.65;75.38;96478.41;5032403;28;20049;-66
2022/02/09 15:34:30;;;;;;;4.63;2.40;;;;;;;12.48;76.39;96475.69;5032279;28;20032;-65
2022/02/09 15:39:32;;;;;;;3.75;2.17;;;;;;;12.24;79.09;96469.63;5049118;28;20072;-66
2022/02/09 16:23:03;;;;;;;5.15;2.47;;;;;;;8.59;100.00;96307.16;5032851;28;20439;-66
2022/02/09 16:25:55;;;;;;;;;;;;;;;8.27;100.00;96303.75;5032144;28;20064;-66
2022/02/09 16:37:23;;;;;;;6.28;2.22;;;;;;;6.83;100.00;96164.19;5053136;28;20035;-65
2022/02/09 16:44:45;;;;;;;3.05;1.98;;;;;;;5.95;100.00;96110.81;5052689;28;20051;-66
2022/02/09 16:47:45;;;;;;;3.83;2.15;;;;;;;5.70;100.00;96080.59;5052374;28;20021;-65
2022/02/09 16:50:09;;;;;;;6.57;2.25;;;;;;;5.43;100.00;96055.97;5052055;28;20053;-66
2022/02/09 17:19:59;;;;;;;4.05;2.30;;;;;;;3.35;100.00;95831.81;4992706;28;20069;-64
2022/02/09 17:22:24;;;;;;;3.63;1.88;;;;;;;3.26;100.00;95827.75;5022573;28;20034;-64
2022/02/09 17:24:52;;;;;;;3.13;2.05;;;;;;;3.14;100.00;95811.63;5052081;28;20453;-65
2022/02/09 17:27:21;;;;;;;3.85;2.13;;;;;;;3.02;100.00;95807.94;5051720;28;20028;-66
2022/02/09 17:35:48;;;;;;;9.23;2.45;;;;;;;2.82;100.00;95781.44;5050644;28;20465;-65
2022/02/09 17:56:49;;;;;;;4.05;2.30;;;;;;;2.23;100.00;95752.13;5051196;28;20059;-65
2022/02/09 17:59:23;;;;;;;6.65;2.80;;;;;;;2.13;100.00;95749.84;5052786;28;20033;-66
2022/02/09 18:01:48;;;;;;;5.47;2.63;;;;;;;2.06;100.00;95746.34;5052520;28;20017;-64
2022/02/09 18:04:16;;;;;;;6.30;2.60;;;;;;;1.97;100.00;95748.34;5051840;28;20032;-65
2022/02/09 18:06:47;;;;;;;4.57;2.67;;;;;;;1.89;100.00;95737.94;5052547;28;20075;-65
2022/02/09 18:09:24;;;;;;;8.55;3.25;;;;;;;1.78;100.00;95742.94;5046815;28;20606;-66
2022/02/09 18:12:16;;;;;;;5.15;2.90;;;;;;;1.65;100.00;95744.50;5043221;28;20040;-65
2022/02/09 18:31:36;;;;;;;5.07;2.95;;;;;;;1.17;100.00;95739.03;5052405;28;20047;-66
2022/02/09 19:03:33;;;;;;;5.75;2.72;;;;;;;0.80;100.00;95755.94;5047561;28;20109;-65
2022/02/09 19:06:05;;;;;;;4.70;3.25;;;;;;;0.73;100.00;95757.69;5032620;28;20037;-65
2022/02/09 19:30:13;;;;;;;7.38;3.80;;;;;;;0.12;100.00;95780.09;5051351;28;20102;-67
2022/02/09 19:48:36;;;;;;;7.40;3.63;;;;;;;0.49;100.00;95794.94;5043951;28;20025;-69
2022/02/09 19:54:01;;;;;;;4.15;2.97;;;;;;;0.50;100.00;95802.66;5031721;28;20029;-67
2022/02/09 19:56:27;;;;;;;6.97;2.97;;;;;;;0.40;100.00;95793.41;5031409;28;20021;-68
2022/02/09 20:01:20;;;;;;;11.98;3.50;;;;;;;0.38;100.00;95804.13;5031461;28;20065;-68
2022/02/09 20:03:49;;;;;;;4.68;2.92;;;;;;;0.39;100.00;95810.22;5038126;28;20380;-68
2022/02/09 20:06:14;;;;;;;8.85;2.95;;;;;;;0.42;100.00;95810.66;5051187;28;20040;-68
2022/02/09 20:08:42;;;;;;;4.28;2.70;;;;;;;0.51;100.00;95806.13;5051253;28;20025;-69
2022/02/09 20:11:15;;;;;;;5.82;3.17;;;;;;;0.46;100.00;95809.31;5047012;28;20041;-68
2022/02/09 20:13:41;;;;;;;5.53;2.80;;;;;;;0.38;100.00;95801.50;5050016;28;20392;-69
2022/02/09 20:16:07;;;;;;;6.03;2.75;;;;;;;0.34;100.00;95804.69;5049789;28;20029;-68
2022/02/09 20:18:34;;;;;;;4.00;2.42;;;;;;;0.28;100.00;95808.88;5049916;28;20040;-68
2022/02/09 20:21:04;;;;;;;4.72;2.95;;;;;;;0.22;100.00;95799.09;5034412;28;20073;-68
2022/02/09 20:23:33;;;;;;;6.05;2.88;;;;;;;0.19;100.00;95802.06;5031113;28;20021;-68
2022/02/09 20:26:03;;;;;;;4.88;2.85;;;;;;;0.13;100.00;95802.81;5046189;28;20043;-68
2022/02/09 20:28:28;;;;;;;4.57;2.72;;;;;;;0.12;100.00;95803.81;5031311;28;20061;-68
2022/02/09 20:31:00;;;;;;;3.53;2.17;;;;;;;0.08;100.00;95805.97;5047957;28;20057;-71
2022/02/09 20:33:32;;;;;;;3.33;2.42;;;;;;;0.04;100.00;95798.63;5051196;28;20041;-69
2022/02/09 20:36:02;;;;;;;5.15;2.85;;;;;;;0.02;100.00;95805.91;5050828;28;20086;-68
2022/02/09 20:38:29;;;;;;;4.32;2.50;;;;;;;0.02;100.00;95801.44;5050530;28;20403;-68
2022/02/09 20:40:58;;;;;;;4.95;2.40;;;;;;;-0.01;100.00;95807.06;5050615;28;20071;-69
2022/02/09 20:43:26;;;;;;;4.50;2.72;;;;;;;-0.02;100.00;95805.41;5050870;28;20394;-68
2022/02/09 20:46:01;;;;;;;4.03;2.05;;;;;;;-0.02;100.00;95808.06;5051097;28;20384;-68
2022/02/09 20:48:27;;;;;;;2.92;2.33;;;;;;;-0.04;100.00;95802.97;5049548;28;20021;-68
2022/02/09 20:50:54;;;;;;;4.60;2.55;;;;;;;-0.06;100.00;95802.34;5050564;28;20035;-68
2022/02/09 20:53:20;;;;;;;3.88;2.10;;;;;;;-0.10;100.00;95802.91;5054702;28;20468;-68
2022/02/09 20:55:52;;;;;;;4.82;2.20;;;;;;;-0.10;100.00;95801.09;5054726;28;20112;-67
2022/02/09 20:58:19;;;;;;;4.13;2.50;;;;;;;-0.07;100.00;95803.34;5054350;28;20029;-68
2022/02/09 21:00:53;;;;;;;4.18;2.17;;;;;;;-0.04;100.00;95807.44;5054629;28;20074;-68
2022/02/09 21:08:59;;;;;;;4.93;2.08;;;;;;;-0.01;100.00;95813.13;5053404;28;20086;-68
2022/02/09 21:12:12;;;;;;;4.63;2.42;;;;;;;-0.04;100.00;95802.97;5054168;28;20035;-68
2022/02/09 21:22:55;;;;;;;6.25;2.42;;;;;;;-0.32;100.00;95801.97;5054350;28;20013;-68
2022/02/09 21:45:21;;;;;;;2.67;1.95;;;;;;;-0.52;100.00;95804.28;5032411;28;20116;-68
2022/02/09 21:56:26;;;;;;;4.32;1.90;;;;;;;-0.71;100.00;95807.41;5074526;28;20048;-68
2022/02/09 22:07:33;;;;;;;3.80;2.03;;;;;;;-1.03;100.00;95805.84;5074746;28;20035;-68
2022/02/09 22:21:17;;;;;;;2.75;1.60;;;;;;;-1.04;100.00;95812.91;5073887;28;20039;-68
2022/02/09 22:26:39;;;;;;;3.38;1.80;;;;;;;-1.14;100.00;95812.31;5073892;28;20040;-67
2022/02/09 22:31:57;;;;;;;3.67;2.05;;;;;;;-1.12;100.00;95823.47;5056540;28;20028;-67
2022/02/09 22:50:56;;;;;;;4.25;1.90;;;;;;;-0.91;100.00;95818.41;5073359;28;20026;-68
2022/02/09 22:56:11;;;;;;;5.07;1.80;;;;;;;-0.83;100.00;95819.34;5073143;28;20089;-68
2022/02/09 22:58:44;;;;;;;3.08;1.70;;;;;;;-0.81;100.00;95812.09;5073052;28;20047;-68
2022/02/09 23:01:32;;;;;;;;;;;;;;;-0.82;100.00;95813.09;5055721;28;20517;-68
2022/02/09 23:06:49;;;;;;;6.32;1.38;;;;;;;-0.71;100.00;95799.53;5079929;28;20044;-67
